MST,Max TemperatureF,Mean TemperatureF,Min TemperatureF,Max Dew PointF,MeanDew PointF,Min DewpointF,Max Humidity, Mean Humidity, Min Humidity, Max Sea Level PressureIn, Mean Sea Level PressureIn, Min Sea Level PressureIn, Max VisibilityMiles, Mean VisibilityMiles, Min VisibilityMiles, Max Wind SpeedMPH, Mean Wind SpeedMPH, Max Gust SpeedMPH,PrecipitationIn, CloudCover, Events, WindDirDegrees
2013-2-1,45,32,19,30,24,17,92,76,40,30.44,30.35,30.29,10,10,10,12,4,,0.00,0,,356
2013-2-2,42,32,21,29,24,19,89,79,45,30.53,30.45,30.39,10,10,7,13,5,,0.00,0,,7
2013-2-3,44,34,25,28,25,22,92,78,38,30.36,30.24,30.13,10,7,4,16,4,,0.00,2,,3
2013-2-4,46,32,19,27,22,17,92,69,29,30.30,30.22,30.15,10,9,4,14,4,,0.00,0,,360
2013-2-5,55,38,21,29,23,19,92,59,15,30.17,30.03,29.87,10,10,7,21,7,23,0.00,0,,190
2013-2-6,46,36,25,25,23,20,81,57,28,30.19,30.01,29.82,10,10,10,21,12,,0.00,2,,4
2013-2-7,52,34,16,23,19,14,85,56,14,30.22,30.06,29.82,10,10,10,23,9,30,0.00,0,,211
2013-2-8,39,34,28,31,24,20,92,67,37,29.79,29.67,29.60,10,8,0,25,13,39,0.02,5,Fog-Snow,204
2013-2-9,35,28,21,27,24,18,93,81,56,29.91,29.78,29.65,10,7,1,15,8,,0.04,7,Snow,7
2013-2-10,28,21,12,23,21,8,93,84,73,30.11,29.91,29.83,10,4,0,18,6,20,0.08,8,Fog-Snow,3
2013-2-11,28,19,9,18,12,3,93,70,47,30.36,30.22,30.04,10,10,2,15,6,,0.00,2,Snow,354
2013-2-12,32,18,3,18,9,-1,81,66,40,30.51,30.44,30.37,10,10,10,10,5,,0.00,3,,337
2013-2-13,41,26,12,24,18,9,88,70,38,30.44,30.37,30.30,10,10,10,12,4,,0.00,0,,330
2013-2-14,42,30,19,27,22,17,88,73,36,30.47,30.37,30.27,10,10,0,15,5,20,0.00,3,,10
2013-2-15,44,32,19,26,22,17,89,71,34,30.56,30.50,30.40,10,9,0,17,6,22,0.00,0,Fog,1
2013-2-16,55,36,16,28,20,12,89,59,8,30.51,30.31,30.00,10,10,0,15,7,,0.00,0,Fog,213
2013-2-17,54,40,25,28,20,12,78,52,12,30.05,29.92,29.80,10,10,0,26,11,34,0.00,1,,232
2013-2-18,46,30,15,22,14,5,84,59,9,30.20,30.08,29.94,10,10,10,10,6,,0.00,0,,230
2013-2-19,53,42,30,21,16,10,78,39,11,29.91,29.67,29.47,10,10,10,30,12,45,0.00,1,,208
2013-2-20,36,33,28,34,29,20,96,88,52,29.81,29.64,29.46,10,3,0,18,8,,0.04,8,Fog-Rain-Snow,7
2013-2-21,36,27,18,27,19,13,93,71,36,30.10,29.94,29.79,10,8,2,15,9,21,0.01,5,Snow,11
2013-2-22,37,26,14,18,14,9,84,58,24,30.21,30.15,30.08,10,9,0,14,5,16,0.00,1,,14
2013-2-23,41,31,19,27,21,14,93,69,23,30.06,29.92,29.79,10,7,1,26,16,38,0.02,7,Rain-Snow,359
2013-2-24,35,25,15,19,17,10,93,76,34,30.34,30.09,29.98,10,6,0,33,12,46,0.04,7,Fog-Snow,3
2013-2-25,46,27,8,27,15,4,93,63,13,30.37,30.15,29.94,10,8,1,23,9,30,0.02,3,Snow,287
2013-2-26,33,24,14,25,18,8,100,81,43,30.41,30.15,30.04,10,5,0,16,3,21,0.08,6,Fog-Snow,3
2013-2-27,36,21,6,18,12,3,84,64,28,30.54,30.48,30.34,10,10,1,15,4,,0.00,0,,357
2013-2-28,50,31,12,22,13,7,81,53,9,30.55,30.49,30.42,10,10,10,13,5,,0.00,0,,189